createdAt,value
2022-07-31T00:00:39.497Z,100500.31
2022-07-31T00:03:41.932Z,100493.44
2022-07-31T00:06:44.287Z,100496.13
2022-07-31T00:09:53.866Z,100496.34
2022-07-31T00:12:56.100Z,100497.56
2022-07-31T00:15:57.566Z,100493.38
2022-07-31T00:18:59.102Z,100491.75
2022-07-31T00:22:00.555Z,100502.47
2022-07-31T00:25:02.134Z,100493.09
2022-07-31T00:28:04.641Z,100494.03
2022-07-31T00:31:06.176Z,100485.47
2022-07-31T00:34:07.682Z,100479.09
2022-07-31T00:37:10.038Z,100487.31
2022-07-31T00:40:14.001Z,100480.19
2022-07-31T00:43:15.918Z,100479.72
2022-07-31T00:46:17.341Z,100481.91
2022-07-31T00:49:19.268Z,100484.22
2022-07-31T00:52:20.878Z,100482.19
2022-07-31T00:55:22.822Z,100482.75
2022-07-31T00:58:24.925Z,100480.22
2022-07-31T01:01:26.483Z,100471.41
2022-07-31T01:04:28.220Z,100474.13
2022-07-31T01:07:32.902Z,100473.19
2022-07-31T01:10:59.206Z,100476.06
2022-07-31T01:14:03.880Z,100474.25
2022-07-31T01:17:07.807Z,100476.31
2022-07-31T01:20:09.894Z,100476.50
2022-07-31T01:23:23.279Z,100473.56
2022-07-31T01:26:37.758Z,100477.22
2022-07-31T01:29:53.373Z,100472.75
2022-07-31T01:32:58.137Z,100471.94
2022-07-31T01:36:16.371Z,100465.81
2022-07-31T01:39:18.970Z,100470.06
2022-07-31T01:42:25.749Z,100462.56
2022-07-31T01:45:29.145Z,100458.78
2022-07-31T01:48:33.831Z,100462.44
2022-07-31T01:51:36.084Z,100455.97
2022-07-31T01:54:38.676Z,100459.41
2022-07-31T01:57:42.672Z,100453.69
2022-07-31T02:00:44.991Z,100448.41
2022-07-31T02:03:51.427Z,100456.34
2022-07-31T02:06:59.722Z,100468.78
2022-07-31T02:10:01.942Z,100460.09
2022-07-31T02:13:05.384Z,100464.69
2022-07-31T02:16:07.824Z,100463.63
2022-07-31T02:19:11.478Z,100463.84
2022-07-31T02:22:12.944Z,100456.75
2022-07-31T02:25:14.434Z,100453.59
2022-07-31T02:28:20.438Z,100458.69
2022-07-31T02:31:23.241Z,100446.06
2022-07-31T02:34:29.172Z,100451.16
2022-07-31T02:37:34.835Z,100443.91
2022-07-31T02:40:37.822Z,100436.56
2022-07-31T02:43:39.573Z,100441.31
2022-07-31T02:46:44.955Z,100430.66
2022-07-31T02:49:47.077Z,100441.19
2022-07-31T02:52:48.539Z,100436.31
2022-07-31T02:55:51.663Z,100437.50
2022-07-31T02:58:53.144Z,100436.31
2022-07-31T03:01:55.702Z,100429.13
2022-07-31T03:04:57.187Z,100429.88
2022-07-31T03:07:59.792Z,100425.94
2022-07-31T03:11:01.641Z,100422.69
2022-07-31T03:14:04.453Z,100432.56
2022-07-31T03:17:08.089Z,100425.47
2022-07-31T03:20:10.680Z,100426.06
2022-07-31T03:23:13.329Z,100422.56
2022-07-31T03:26:15.702Z,100419.19
2022-07-31T03:29:36.120Z,100420.34
2022-07-31T03:32:38.583Z,100422.19
2022-07-31T03:35:42.407Z,100422.31
2022-07-31T03:38:50.485Z,100419.31
2022-07-31T03:41:54.968Z,100417.63
2022-07-31T03:44:56.638Z,100414.09
2022-07-31T03:47:58.305Z,100423.13
2022-07-31T03:51:00.262Z,100425.31
2022-07-31T03:54:01.901Z,100431.38
2022-07-31T03:57:03.881Z,100427.00
2022-07-31T04:00:09.108Z,100433.03
2022-07-31T04:03:18.352Z,100429.94
2022-07-31T04:06:19.825Z,100435.63
2022-07-31T04:09:21.987Z,100440.16
2022-07-31T04:12:23.545Z,100439.16
2022-07-31T04:15:25.375Z,100436.75
2022-07-31T04:18:26.970Z,100437.72
2022-07-31T04:21:28.537Z,100436.63
2022-07-31T04:24:30.003Z,100438.00
2022-07-31T04:27:32.106Z,100449.09
2022-07-31T04:30:33.666Z,100444.13
2022-07-31T04:33:35.253Z,100447.00
2022-07-31T04:36:48.592Z,100438.91
2022-07-31T04:39:50.059Z,100447.25
2022-07-31T04:42:51.631Z,100445.09
2022-07-31T04:45:53.131Z,100448.34
2022-07-31T04:48:54.704Z,100450.41
2022-07-31T04:51:57.331Z,100452.72
2022-07-31T04:54:58.897Z,100452.81
2022-07-31T04:58:00.329Z,100452.44
2022-07-31T05:01:02.727Z,100455.03
2022-07-31T05:04:05.574Z,100449.22
2022-07-31T05:07:06.987Z,100454.75
2022-07-31T05:10:09.041Z,100457.97
2022-07-31T05:13:10.452Z,100456.97
2022-07-31T05:16:12.563Z,100448.59
2022-07-31T05:19:14.832Z,100450.31
2022-07-31T05:22:16.614Z,100454.28
2022-07-31T05:25:20.309Z,100446.50
2022-07-31T05:28:29.615Z,100455.84
2022-07-31T05:31:31.615Z,100452.09
2022-07-31T05:34:33.059Z,100455.38
2022-07-31T05:37:34.928Z,100458.13
2022-07-31T05:40:36.401Z,100456.53
2022-07-31T05:43:38.227Z,100463.88
2022-07-31T05:46:39.712Z,100469.63
2022-07-31T05:49:41.133Z,100469.38
2022-07-31T05:52:42.770Z,100465.88
2022-07-31T05:55:45.531Z,100462.84
2022-07-31T05:58:48.543Z,100466.09
2022-07-31T06:01:50.305Z,100464.03
2022-07-31T06:04:51.907Z,100461.69
2022-07-31T06:07:54.469Z,100455.16
2022-07-31T06:10:56.253Z,100454.66
2022-07-31T06:13:58.341Z,100464.16
2022-07-31T06:16:59.832Z,100464.13
2022-07-31T06:20:02.266Z,100474.66
2022-07-31T06:23:03.994Z,100466.84
2022-07-31T06:26:24.281Z,100467.94
2022-07-31T06:29:41.100Z,100467.38
2022-07-31T06:32:43.792Z,100462.91
2022-07-31T06:35:47.393Z,100473.69
2022-07-31T06:38:48.895Z,100476.69
2022-07-31T06:41:50.429Z,100484.25
2022-07-31T06:44:52.792Z,100478.53
2022-07-31T06:47:54.474Z,100482.47
2022-07-31T06:51:14.653Z,100491.56
2022-07-31T06:54:17.371Z,100488.59
2022-07-31T06:57:19.123Z,100484.50
2022-07-31T07:00:21.041Z,100482.13
2022-07-31T07:03:22.724Z,100485.44
2022-07-31T07:06:24.685Z,100491.94
2022-07-31T07:09:26.147Z,100483.31
2022-07-31T07:12:28.503Z,100488.91
2022-07-31T07:15:30.027Z,100482.69
2022-07-31T07:18:31.694Z,100488.41
2022-07-31T07:21:34.589Z,100471.41
2022-07-31T07:24:36.109Z,100475.97
2022-07-31T07:27:37.619Z,100472.09
2022-07-31T07:30:39.821Z,100471.41
2022-07-31T07:33:42.927Z,100465.69
2022-07-31T07:36:44.614Z,100473.69
2022-07-31T07:39:46.339Z,100468.53
2022-07-31T07:42:47.866Z,100454.19
2022-07-31T07:45:49.452Z,100465.97
2022-07-31T07:48:51.870Z,100460.81
2022-07-31T07:52:10.294Z,100454.81
2022-07-31T07:55:12.717Z,100460.34
2022-07-31T07:58:14.227Z,100464.72
2022-07-31T08:01:16.232Z,100455.84
2022-07-31T08:04:17.753Z,100460.75
2022-07-31T08:07:42.714Z,100456.19
2022-07-31T08:10:44.488Z,100455.63
2022-07-31T08:13:50.516Z,100463.25
2022-07-31T08:16:53.617Z,100452.75
2022-07-31T08:19:55.085Z,100447.16
2022-07-31T08:22:56.782Z,100442.28
2022-07-31T08:25:58.310Z,100446.25
2022-07-31T08:29:00.220Z,100432.38
2022-07-31T08:32:07.137Z,100434.00
2022-07-31T08:35:09.018Z,100439.75
2022-07-31T08:38:10.502Z,100439.38
2022-07-31T08:41:14.245Z,100444.53
2022-07-31T08:44:15.929Z,100437.13
2022-07-31T08:47:17.930Z,100425.25
2022-07-31T08:50:19.705Z,100430.56
2022-07-31T08:53:22.770Z,100417.94
2022-07-31T08:56:25.681Z,100425.66
2022-07-31T08:59:27.126Z,100431.41
2022-07-31T09:02:28.665Z,100431.63
2022-07-31T09:05:42.365Z,100433.94
2022-07-31T09:08:44.420Z,100418.09
2022-07-31T09:11:50.426Z,100429.09
2022-07-31T09:14:51.897Z,100424.59
2022-07-31T09:17:54.546Z,100426.44
2022-07-31T09:20:58.970Z,100421.88
2022-07-31T09:24:00.625Z,100421.41
2022-07-31T09:27:07.883Z,100419.84
2022-07-31T09:30:09.909Z,100409.47
2022-07-31T09:33:16.320Z,100405.53
2022-07-31T09:36:22.989Z,100400.38
2022-07-31T09:39:26.936Z,100391.47
2022-07-31T09:42:45.829Z,100396.91
2022-07-31T09:46:06.141Z,100391.03
2022-07-31T09:49:07.905Z,100389.72
2022-07-31T09:52:19.660Z,100387.41
2022-07-31T09:55:21.732Z,100393.28
2022-07-31T09:58:25.465Z,100386.75
2022-07-31T10:01:27.967Z,100384.53
2022-07-31T10:04:30.527Z,100382.31
2022-07-31T10:07:35.775Z,100381.13
2022-07-31T10:10:37.428Z,100373.66
2022-07-31T10:13:44.626Z,100379.22
2022-07-31T10:16:48.563Z,100377.22
2022-07-31T10:19:51.013Z,100368.03
2022-07-31T10:23:27.238Z,100362.06
2022-07-31T10:26:57.441Z,100362.69
2022-07-31T10:29:51.375Z,100354.66
2022-07-31T10:32:53.502Z,100359.97
2022-07-31T10:36:15.229Z,100354.19
2022-07-31T10:39:35.845Z,100348.78
2022-07-31T10:42:43.094Z,100348.84
2022-07-31T10:45:52.659Z,100350.81
2022-07-31T10:48:54.503Z,100344.28
2022-07-31T10:51:56.124Z,100329.16
2022-07-31T10:55:01.034Z,100325.66
2022-07-31T10:58:09.155Z,100322.13
2022-07-31T11:01:11.987Z,100317.53
2022-07-31T11:04:32.213Z,100308.75
2022-07-31T11:07:33.705Z,100304.22
2022-07-31T11:10:35.400Z,100310.34
2022-07-31T11:13:48.218Z,100308.34
2022-07-31T11:16:51.025Z,100300.28
2022-07-31T11:19:52.718Z,100297.72
2022-07-31T11:23:15.091Z,100296.91
2022-07-31T11:26:17.145Z,100293.75
2022-07-31T11:29:59.154Z,100289.97
2022-07-31T11:32:58.753Z,100281.75
2022-07-31T11:36:17.925Z,100286.28
2022-07-31T11:39:19.415Z,100282.63
2022-07-31T11:42:32.057Z,100276.94
2022-07-31T11:45:46.035Z,100287.91
2022-07-31T11:48:49.513Z,100280.13
2022-07-31T11:52:00.312Z,100270.66
2022-07-31T11:55:10.066Z,100266.34
2022-07-31T11:58:11.799Z,100258.56
2022-07-31T12:01:13.420Z,100255.03
2022-07-31T12:04:20.710Z,100249.09
2022-07-31T12:07:22.312Z,100251.78
2022-07-31T12:10:24.098Z,100234.72
2022-07-31T12:13:27.054Z,100243.06
2022-07-31T12:16:39.639Z,100238.66
2022-07-31T12:19:41.058Z,100238.78
2022-07-31T12:22:42.600Z,100226.16
2022-07-31T12:25:46.329Z,100229.56
2022-07-31T12:29:10.806Z,100221.63
2022-07-31T12:32:12.280Z,100213.41
2022-07-31T12:35:13.770Z,100197.22
2022-07-31T12:38:38.247Z,100201.81
2022-07-31T12:41:43.279Z,100200.13
2022-07-31T12:44:49.654Z,100198.22
2022-07-31T12:47:53.962Z,100185.69
2022-07-31T12:50:55.469Z,100193.91
2022-07-31T12:53:56.928Z,100185.72
2022-07-31T12:56:58.393Z,100184.00
2022-07-31T12:59:59.876Z,100175.84
2022-07-31T13:03:01.994Z,100181.22
2022-07-31T13:06:03.609Z,100179.38
2022-07-31T13:09:05.256Z,100176.78
2022-07-31T13:12:07.804Z,100177.69
2022-07-31T13:15:10.132Z,100171.31
2022-07-31T13:18:11.593Z,100157.72
2022-07-31T13:21:13.051Z,100154.00
2022-07-31T13:24:15.036Z,100143.13
2022-07-31T13:27:18.102Z,100141.22
2022-07-31T13:30:19.668Z,100123.94
2022-07-31T13:33:21.098Z,100116.69
2022-07-31T13:36:23.180Z,100129.56
2022-07-31T13:39:24.702Z,100120.50
2022-07-31T13:42:29.323Z,100121.28
2022-07-31T13:45:31.505Z,100120.16
2022-07-31T13:48:33.697Z,100117.59
2022-07-31T13:51:35.739Z,100116.69
2022-07-31T13:54:37.191Z,100109.63
2022-07-31T13:57:38.610Z,100105.94
2022-07-31T14:00:40.767Z,100112.38
2022-07-31T14:03:42.333Z,100100.41
2022-07-31T14:06:43.818Z,100099.50
2022-07-31T14:09:54.620Z,100112.97
2022-07-31T14:12:56.804Z,100100.53
2022-07-31T14:15:58.237Z,100089.63
2022-07-31T14:18:59.732Z,100092.03
2022-07-31T14:22:01.185Z,100119.22
2022-07-31T14:25:03.024Z,100092.25
2022-07-31T14:28:06.303Z,100087.16
2022-07-31T14:31:07.781Z,100086.47
2022-07-31T14:34:09.280Z,100093.06
2022-07-31T14:37:10.822Z,100072.16
2022-07-31T14:40:12.848Z,100083.81
2022-07-31T14:43:14.913Z,100085.72
2022-07-31T14:46:16.321Z,100083.81
2022-07-31T14:49:17.797Z,100071.59
2022-07-31T14:52:19.334Z,100061.22
2022-07-31T14:55:21.015Z,100074.09
2022-07-31T14:58:22.629Z,100080.28
2022-07-31T15:01:24.171Z,100065.81
2022-07-31T15:04:28.305Z,100070.44
2022-07-31T15:07:35.181Z,100065.19
2022-07-31T15:10:38.097Z,100053.34
2022-07-31T15:13:39.555Z,100057.88
2022-07-31T15:16:41.081Z,100053.16
2022-07-31T15:19:42.599Z,100061.38
2022-07-31T15:22:44.121Z,100059.72
2022-07-31T15:25:46.196Z,100066.06
2022-07-31T15:28:47.717Z,100054.22
2022-07-31T15:31:49.258Z,100047.03
2022-07-31T15:34:50.809Z,100056.94
2022-07-31T15:37:52.278Z,100052.91
2022-07-31T15:40:53.773Z,100060.31
2022-07-31T15:43:55.508Z,100058.34
2022-07-31T15:46:57.022Z,100053.78
2022-07-31T15:49:58.820Z,100046.84
2022-07-31T15:53:00.860Z,100044.09
2022-07-31T15:56:04.275Z,100033.94
2022-07-31T15:59:06.964Z,100035.56
2022-07-31T16:02:08.459Z,100033.72
2022-07-31T16:05:12.031Z,100036.84
2022-07-31T16:08:34.381Z,100041.00
2022-07-31T16:12:03.993Z,100027.53
2022-07-31T16:14:58.756Z,100022.28
2022-07-31T16:18:00.691Z,100026.13
2022-07-31T16:21:02.224Z,100016.16
2022-07-31T16:24:04.554Z,100006.16
2022-07-31T16:27:06.522Z,100014.19
2022-07-31T16:30:11.770Z,100020.25
2022-07-31T16:33:13.609Z,100011.41
2022-07-31T16:36:17.656Z,100014.16
2022-07-31T16:39:22.236Z,100008.53
2022-07-31T16:42:23.782Z,100007.78
2022-07-31T16:45:25.322Z,100014.34
2022-07-31T16:48:26.817Z,100003.44
2022-07-31T16:51:28.230Z,100006.97
2022-07-31T16:54:29.703Z,100011.59
2022-07-31T16:57:31.215Z,100009.84
2022-07-31T17:00:32.781Z,100013.47
2022-07-31T17:04:01.001Z,100001.72
2022-07-31T17:06:56.165Z,99998.09
2022-07-31T17:09:57.741Z,100012.56
2022-07-31T17:12:59.380Z,100010.78
2022-07-31T17:16:00.830Z,100009.88
2022-07-31T17:19:05.443Z,100009.88
2022-07-31T17:22:08.098Z,100010.78
2022-07-31T17:25:12.473Z,100006.25
2022-07-31T17:28:15.456Z,100011.69
2022-07-31T17:31:18.395Z,100007.16
2022-07-31T17:34:19.876Z,100004.44
2022-07-31T17:37:21.421Z,100008.09
2022-07-31T17:40:42.447Z,100010.78
2022-07-31T17:43:50.770Z,100018.00
2022-07-31T17:46:55.057Z,100016.16
2022-07-31T17:49:57.315Z,100014.28
2022-07-31T17:52:58.889Z,100015.06
2022-07-31T17:56:00.314Z,100027.78
2022-07-31T17:59:06.630Z,100026.81
2022-07-31T18:02:08.500Z,100019.47
2022-07-31T18:05:10.506Z,100021.41
2022-07-31T18:08:11.972Z,100035.81
2022-07-31T18:11:13.538Z,100030.38
2022-07-31T18:14:15.350Z,100028.53
2022-07-31T18:17:20.633Z,100029.38
2022-07-31T18:20:22.131Z,100036.56
2022-07-31T18:23:29.285Z,100044.59
2022-07-31T18:26:35.277Z,100051.72
2022-07-31T18:29:36.965Z,100046.22
2022-07-31T18:32:38.390Z,100041.63
2022-07-31T18:35:41.529Z,100047.91
2022-07-31T18:38:43.019Z,100048.47
2022-07-31T18:41:48.641Z,100053.38
2022-07-31T18:44:51.345Z,100053.31
2022-07-31T18:47:53.337Z,100031.31
2022-07-31T18:50:58.610Z,100054.31
2022-07-31T18:54:05.909Z,100054.53
2022-07-31T18:57:08.505Z,100058.34
2022-07-31T19:00:10.749Z,100056.22
2022-07-31T19:03:12.220Z,100058.72
2022-07-31T19:06:13.758Z,100055.63
2022-07-31T19:09:15.469Z,100058.28
2022-07-31T19:12:17.050Z,100063.75
2022-07-31T19:15:18.493Z,100067.19
2022-07-31T19:18:24.384Z,100074.25
2022-07-31T19:21:42.530Z,100069.34
2022-07-31T19:24:44.319Z,100079.84
2022-07-31T19:27:47.894Z,100083.50
2022-07-31T19:30:50.911Z,100080.50
2022-07-31T19:33:52.505Z,100084.31
2022-07-31T19:36:54.020Z,100089.09
2022-07-31T19:39:55.423Z,100092.97
2022-07-31T19:42:58.790Z,100101.59
2022-07-31T19:46:12.051Z,100109.38
2022-07-31T19:49:14.266Z,100103.41
2022-07-31T19:52:15.874Z,100096.44
2022-07-31T19:55:17.423Z,100110.72
2022-07-31T19:58:21.153Z,100108.84
2022-07-31T20:01:22.743Z,100117.16
2022-07-31T20:04:25.046Z,100115.66
2022-07-31T20:07:32.237Z,100114.19
2022-07-31T20:10:34.364Z,100118.66
2022-07-31T20:13:38.570Z,100113.25
2022-07-31T20:16:41.173Z,100119.22
2022-07-31T20:20:15.106Z,100124.97
2022-07-31T20:23:05.546Z,100123.88
2022-07-31T20:26:10.434Z,100123.72
2022-07-31T20:29:11.956Z,100126.63
2022-07-31T20:32:13.545Z,100129.13
2022-07-31T20:35:35.220Z,100124.28
2022-07-31T20:38:36.774Z,100122.09
2022-07-31T20:41:38.230Z,100114.47
2022-07-31T20:44:41.401Z,100126.47
2022-07-31T20:47:42.883Z,100117.44
2022-07-31T20:50:47.765Z,100123.03
2022-07-31T20:53:50.968Z,100129.16
2022-07-31T20:56:52.478Z,100115.47
2022-07-31T20:59:54.002Z,100116.94
2022-07-31T21:02:55.658Z,100118.16
2022-07-31T21:05:57.182Z,100121.31
2022-07-31T21:08:58.627Z,100122.28
2022-07-31T21:12:08.487Z,100124.53
2022-07-31T21:15:40.732Z,100128.56
2022-07-31T21:18:34.973Z,100128.56
2022-07-31T21:21:37.261Z,100135.66
2022-07-31T21:24:38.906Z,100128.03
2022-07-31T21:27:40.809Z,100143.47
2022-07-31T21:30:42.513Z,100150.16
2022-07-31T21:33:45.288Z,100148.84
2022-07-31T21:36:48.141Z,100147.50
2022-07-31T21:39:50.520Z,100156.75
2022-07-31T21:42:56.497Z,100156.75
2022-07-31T21:46:02.898Z,100160.59
2022-07-31T21:49:04.567Z,100169.78
2022-07-31T21:52:07.253Z,100160.66
2022-07-31T21:55:09.484Z,100168.00
2022-07-31T21:58:12.476Z,100177.84
2022-07-31T22:01:15.159Z,100190.06
2022-07-31T22:04:18.063Z,100189.88
2022-07-31T22:07:32.150Z,100200.81
2022-07-31T22:10:33.836Z,100188.13
2022-07-31T22:13:35.629Z,100183.66
2022-07-31T22:16:38.324Z,100185.22
2022-07-31T22:19:44.367Z,100196.66
2022-07-31T22:22:49.772Z,100195.63
2022-07-31T22:25:51.333Z,100183.63
2022-07-31T22:28:53.613Z,100206.91
2022-07-31T22:31:55.307Z,100203.84
2022-07-31T22:34:56.920Z,100201.63
2022-07-31T22:37:58.393Z,100201.50
2022-07-31T22:41:00.934Z,100205.91
2022-07-31T22:44:14.159Z,100205.56
2022-07-31T22:47:17.264Z,100205.66
2022-07-31T22:50:19.057Z,100206.09
2022-07-31T22:53:20.538Z,100213.44
2022-07-31T22:56:22.215Z,100207.84
2022-07-31T22:59:23.644Z,100215.47
2022-07-31T23:02:25.256Z,100224.19
2022-07-31T23:05:26.813Z,100225.69
2022-07-31T23:08:28.259Z,100228.47
2022-07-31T23:11:30.061Z,100228.38
2022-07-31T23:14:31.560Z,100231.47
2022-07-31T23:17:33.023Z,100234.41
2022-07-31T23:20:34.561Z,100242.66
2022-07-31T23:23:36.052Z,100250.81
2022-07-31T23:26:37.589Z,100238.06
2022-07-31T23:29:41.583Z,100251.03
2022-07-31T23:32:43.146Z,100241.97
2022-07-31T23:35:44.615Z,100240.97
2022-07-31T23:38:46.648Z,100249.63
2022-07-31T23:42:06.972Z,100243.38
2022-07-31T23:45:12.169Z,100247.47
2022-07-31T23:48:14.924Z,100242.16
2022-07-31T23:51:16.611Z,100239.41
2022-07-31T23:54:22.406Z,100237.78
2022-07-31T23:57:24.120Z,100240.47
